Afton, TX

2:42 AM CST on February 10, 2016 (GMT -0600)
WT_Meso | | Change Station
CLOSE
Current Station
Personal Weather Station
Location: Roaring Springs, TX
Elevation: 2615 ft
Nearby Weather Stations

Elev 2615 ft 33.94 °N, 100.85 °W | Updated 27 minutes ago

Partly Cloudy
Partly Cloudy
37 °F
Feels Like 30 °F
N
9
Wind Variable Wind from WSW
Gusts 10.0 mph

Today
High -- | Low -- °F
--% Chance of Precip.
Yesterday
High -- | Low -- °F
Precip. -- in
Pressure 30.31 in
Visibility 10.0 miles
Clouds Clear
Windchill 30 °F
Dew Point 29 °F
Humidity 73%
Rainfall in
Snow Depth Not available.
7:32 AM 6:22 PM
Waxing Crescent, 4% visible
METAR KCDS 100753Z AUTO 17005KT 10SM CLR 01/M04 A3032 RMK AO2 SLP262 T00111044
Pressure 30.31 in
Visibility 10.0 miles
Clouds Clear
Windchill 30 °F
Dew Point 29 °F
Humidity 73%
Rainfall in
Snow Depth Not available.
7:32 AM 6:22 PM
Waxing Crescent, 4% visible
METAR KCDS 100753Z AUTO 17005KT 10SM CLR 01/M04 A3032 RMK AO2 SLP262 T00111044

10-Day Weather Forecast

Almanac

Astronomy

Feb. 10, 2016 Rise Set
Actual Time
Civil Twilight
Nautical Twilight
Astronomical Twilight
Moon
Length of Visible Light
Length of Day
Tomorrow will be .
, % of the Moon is Illuminated

Today's Extremes

State Highs State Lows

Community

WunderPhotos

Upload Photos

1,891,826 photos uploaded!

WunderBlog® & News

Nearby

Air Quality

  Air Quality AQ Index Pollutant
Not available.

Snow Depth

Station Depth Elevation

Earthquake Activity

City Distance Mag. Time & Date
Minimum magnitude displayed is 2.5.

Coastal Water Temperatures

Place Temperature

Stations

Nearby Weather Stations

Station Location Temp. Windchill Dew Point Humidity Wind Precip. Elev Updated Type
                   

Watches & Warnings

There are currently no watches in effect.